Harrisville, MI

8:47 PM EST on January 25, 2015 (GMT -0500)
3 Miles N. of Oscoda, along Lk. Huron | Change Station
CLOSE
Current Station
Personal Weather Station
Location: Oscoda, MI
Elevation: 610 ft
Nearby Weather Stations

Elev 610 ft 44.47 °N, 83.32 °W | Updated 3 minutes ago

Overcast
Overcast
15.1 °F
Feels Like 15 °F
N
3.0
Wind Variable Wind from NW
Gusts 4.9 mph

Today
High -- | Low -- °F
--% Chance of Precip.
Yesterday
High -- | Low -- °F
Precip. -- in
7:59 AM 5:32 PM
Waxing Crescent, 38% visible
Pressure 30.07 in
Visibility 10.0 miles
Clouds Overcast 2200 ft
Windchill 15 °F
Dew Point -3 °F
Humidity 44%
Rainfall -999.00 in
Snow Depth Not available.
UV 0 out of 12
Pollen .10 out of 12
Air Quality Not available.
Flu Activity Not available.
METAR KOSC 260133Z AUTO 36006KT 10SM -SN OVC022 M10/M13 A3007 RMK AO2 T10991131

More Conditions Fewer Conditions

Pressure 30.07 in
Visibility 10.0 miles
Clouds Overcast 2200 ft
Windchill 15 °F
Dew Point -3 °F
Humidity 44%
Rainfall -999.00 in
Snow Depth Not available.
UV 0 out of 12
Pollen .10 out of 12
Air Quality Not available.
Flu Activity Not available.
METAR KOSC 260133Z AUTO 36006KT 10SM -SN OVC022 M10/M13 A3007 RMK AO2 T10991131

More Conditions Fewer Conditions

Nowcast | as of 8:00 PM EST on January 25, 2015

At 9 PM...mostly cloudy. Scattered flurries. Temperature 15. Northeast winds 6 mph. At 11 PM...mostly cloudy. Scattered flurries. Temperature 14. Northeast winds 6 mph. At 1 am...mostly cloudy. Scattered flurries. Temperature 13. Northeast winds 6 mph. At 3 am...cloudy. Scattered flurries. Temperature 13. Light winds.

×

10-Day Weather Forecast

Almanac

Astronomy

Jan. 25, 2015 Rise Set
Actual Time
Civil Twilight
Nautical Twilight
Astronomical Twilight
Moon
Length of Visible Light
Length of Day
Tomorrow will be .
, % of the Moon is Illuminated

Today's Extremes

State Highs State Lows

Community

WunderPhotos

Upload Photos

1,790,045 photos uploaded!

WunderBlogs® & News

Nearby

Air Quality

  Air Quality AQ Index Pollutant
Not available.

Snow Depth

Station Depth Elevation

Earthquake Activity

City Distance Mag. Time & Date
Minimum magnitude displayed is 2.5.

Coastal Water Temperatures

Place Temperature

Nearby Weather Stations